Time;durP1;ratioP1;P1;durP2;ratioP2;P2;SDS_P1;SDS_P2;PMS_P1;PMS_P2;Temp;Humidity;BMP_temperature;BMP_pressure;BME280_temperature;BME280_humidity;BME280_pressure;Samples;Min_cycle;Max_cycle;Signal;HPM_P1;HPM_P2
2021/10/13 00:01:10;;;;;;;14.10;9.60;;;;;;;6.37;78.04;99499.06;229041;1192;141328;-65
2021/10/13 00:06:14;;;;;;;14.00;10.30;;;;;;;6.34;78.01;99495.00;230075;1191;141349;-66
2021/10/13 00:11:17;;;;;;;15.70;10.80;;;;;;;6.34;78.32;99501.23;229369;1191;139898;-66
2021/10/13 00:16:22;;;;;;;16.10;10.80;;;;;;;6.33;78.21;99502.42;230048;1191;139251;-67
2021/10/13 00:21:26;;;;;;;30.80;19.40;;;;;;;6.36;78.50;99506.44;229652;1192;140984;-68
2021/10/13 00:26:30;;;;;;;30.80;15.70;;;;;;;6.38;78.06;99505.41;229448;1191;140976;-67
2021/10/13 00:31:33;;;;;;;19.00;12.10;;;;;;;6.37;78.55;99503.14;229451;1191;138957;-65
2021/10/13 00:36:37;;;;;;;18.90;13.80;;;;;;;6.34;78.42;99502.70;230247;1192;138928;-67
2021/10/13 00:41:41;;;;;;;18.30;11.80;;;;;;;6.33;78.18;99504.33;229785;1192;140168;-67
2021/10/13 00:46:44;;;;;;;17.80;12.60;;;;;;;6.34;78.23;99505.15;229268;1192;140472;-66
2021/10/13 00:51:49;;;;;;;21.50;11.70;;;;;;;6.33;78.27;99505.35;230488;1191;140312;-67
2021/10/13 00:56:54;;;;;;;18.80;13.70;;;;;;;6.40;78.40;99511.30;229069;1192;140619;-65
2021/10/13 01:02:02;;;;;;;15.90;12.60;;;;;;;6.41;78.19;99515.73;230102;1191;141572;-66
2021/10/13 01:07:34;;;;;;;18.80;12.90;;;;;;;6.40;78.43;99523.35;230381;1192;140306;-67
2021/10/13 01:12:53;;;;;;;17.20;11.30;;;;;;;6.35;77.92;99520.49;230415;1185;139819;-66
2021/10/13 01:18:16;;;;;;;21.90;14.80;;;;;;;6.34;78.23;99520.63;231061;1191;140981;-66
2021/10/13 01:23:42;;;;;;;18.70;13.20;;;;;;;6.34;78.17;99528.20;230444;1192;140201;-66
2021/10/13 01:28:49;;;;;;;26.10;13.70;;;;;;;6.33;78.35;99529.99;229668;1192;140999;-66
2021/10/13 01:34:04;;;;;;;25.40;13.80;;;;;;;6.29;78.09;99533.67;231180;1191;141158;-68
2021/10/13 01:39:10;;;;;;;20.80;14.60;;;;;;;6.27;78.07;99537.89;230322;1192;140574;-67
2021/10/13 01:44:15;;;;;;;22.10;14.40;;;;;;;6.27;78.13;99541.80;231355;1191;140732;-69
2021/10/13 01:49:21;;;;;;;20.50;13.60;;;;;;;6.25;78.13;99539.08;230725;1183;140835;-67
2021/10/13 01:54:27;;;;;;;22.60;15.90;;;;;;;6.24;78.30;99535.54;230042;1191;141021;-67
2021/10/13 01:59:36;;;;;;;23.40;14.70;;;;;;;6.22;78.60;99542.38;230203;1191;140119;-67
2021/10/13 02:04:42;;;;;;;21.40;14.10;;;;;;;6.23;78.50;99542.09;229379;1192;142639;-67
2021/10/13 02:09:50;;;;;;;24.40;14.60;;;;;;;6.29;78.34;99534.45;229465;1191;140028;-66
2021/10/13 02:14:56;;;;;;;25.20;13.60;;;;;;;6.28;78.62;99537.14;229994;1192;140620;-67
2021/10/13 02:20:02;;;;;;;20.00;14.10;;;;;;;6.26;78.71;99539.11;229566;1191;143927;-68
2021/10/13 02:25:07;;;;;;;22.40;14.20;;;;;;;6.24;78.78;99545.83;229554;1192;140585;-67
2021/10/13 02:30:12;;;;;;;20.30;14.00;;;;;;;6.27;78.51;99548.06;229477;1192;140141;-66
2021/10/13 02:35:18;;;;;;;21.30;15.70;;;;;;;6.24;78.53;99562.61;230650;1191;139998;-67
2021/10/13 02:40:22;;;;;;;26.00;17.80;;;;;;;6.23;78.97;99566.65;230156;1191;139628;-67
2021/10/13 02:45:29;;;;;;;23.00;14.60;;;;;;;6.28;78.46;99572.90;229907;1191;140531;-66
2021/10/13 02:51:06;;;;;;;25.20;15.40;;;;;;;6.29;78.69;99575.98;229796;1191;140054;-67
2021/10/13 02:56:20;;;;;;;22.90;14.70;;;;;;;6.27;78.57;99578.92;229968;1191;139770;-67
2021/10/13 03:01:30;;;;;;;19.70;13.80;;;;;;;6.24;78.52;99580.29;230024;1192;140459;-66
2021/10/13 03:06:38;;;;;;;19.30;13.40;;;;;;;6.24;78.41;99583.45;230681;1191;140936;-67
2021/10/13 03:11:43;;;;;;;19.10;14.00;;;;;;;6.20;78.61;99588.35;229578;1192;140761;-67
2021/10/13 03:16:51;;;;;;;17.70;12.10;;;;;;;6.17;78.59;99589.84;230390;1192;140122;-67
2021/10/13 03:21:56;;;;;;;14.90;12.40;;;;;;;6.22;78.76;99598.70;230543;1192;141158;-67
2021/10/13 03:27:00;;;;;;;17.10;11.70;;;;;;;6.25;78.76;99601.09;231394;1192;140894;-67
2021/10/13 03:32:04;;;;;;;21.60;12.30;;;;;;;6.26;78.65;99606.17;231302;1191;139857;-70
2021/10/13 03:37:08;;;;;;;19.00;14.10;;;;;;;6.31;78.76;99618.09;231273;1191;140577;-67
2021/10/13 03:42:12;;;;;;;18.50;12.70;;;;;;;6.38;78.63;99621.78;231277;1191;140172;-67
2021/10/13 03:47:16;;;;;;;19.40;13.30;;;;;;;6.40;78.59;99624.13;230008;1192;140851;-67
2021/10/13 03:52:20;;;;;;;21.30;12.10;;;;;;;6.38;78.52;99628.99;230498;1192;140214;-67
2021/10/13 03:57:25;;;;;;;17.60;13.60;;;;;;;6.36;78.40;99629.89;230264;1192;140437;-67
2021/10/13 04:02:30;;;;;;;15.80;12.50;;;;;;;6.35;78.22;99631.85;229428;1192;141124;-67
2021/10/13 04:07:34;;;;;;;18.50;13.10;;;;;;;6.30;78.30;99646.89;229514;1191;139423;-67
2021/10/13 04:12:40;;;;;;;19.20;12.80;;;;;;;6.26;78.33;99648.45;230018;1191;140422;-67
2021/10/13 04:17:44;;;;;;;15.70;12.40;;;;;;;6.24;78.24;99659.33;229937;1192;140275;-67
2021/10/13 04:22:49;;;;;;;20.30;13.20;;;;;;;6.17;78.48;99663.86;230252;1191;140429;-67
2021/10/13 04:27:53;;;;;;;19.70;14.80;;;;;;;6.10;78.41;99668.86;230032;1191;141450;-67
2021/10/13 04:32:58;;;;;;;20.50;14.40;;;;;;;6.08;78.51;99675.62;230097;1192;139467;-67
2021/10/13 04:38:05;;;;;;;19.20;13.20;;;;;;;6.10;78.46;99674.15;230135;1192;140157;-69
2021/10/13 04:43:11;;;;;;;18.80;14.30;;;;;;;6.08;78.47;99675.42;229850;1191;139297;-67
2021/10/13 04:48:17;;;;;;;21.50;16.60;;;;;;;6.05;78.11;99668.95;229246;1192;140718;-67
2021/10/13 04:53:22;;;;;;;19.60;12.90;;;;;;;6.08;78.44;99673.52;229466;1192;140559;-67
2021/10/13 04:58:28;;;;;;;18.50;15.50;;;;;;;6.04;78.24;99680.19;230515;1192;140648;-67
2021/10/13 05:03:34;;;;;;;18.50;13.10;;;;;;;6.02;78.47;99686.17;230177;1191;139928;-67
2021/10/13 05:08:39;;;;;;;21.30;14.60;;;;;;;6.02;78.75;99696.88;229752;1192;141618;-66
2021/10/13 05:13:43;;;;;;;28.10;18.50;;;;;;;6.03;78.39;99700.31;229266;1192;141001;-66
2021/10/13 05:18:49;;;;;;;18.70;14.60;;;;;;;5.98;78.54;99705.60;230769;1192;140722;-67
2021/10/13 05:23:53;;;;;;;23.20;16.60;;;;;;;5.97;78.85;99712.73;230106;1192;141594;-67
2021/10/13 05:28:58;;;;;;;23.60;15.30;;;;;;;5.98;78.69;99719.85;231518;1191;140598;-68
2021/10/13 05:34:03;;;;;;;21.80;16.20;;;;;;;6.06;78.67;99723.34;231211;1191;140305;-68
2021/10/13 05:39:08;;;;;;;22.60;12.90;;;;;;;6.08;78.50;99732.59;230307;1192;140099;-66
2021/10/13 05:44:14;;;;;;;17.20;14.50;;;;;;;6.04;78.38;99742.69;230346;1192;139753;-67
2021/10/13 05:49:20;;;;;;;18.40;13.60;;;;;;;5.98;78.25;99747.77;229915;1192;139048;-67
2021/10/13 05:54:25;;;;;;;18.80;13.30;;;;;;;5.99;78.15;99749.85;230457;1192;139696;-67
2021/10/13 05:59:31;;;;;;;19.00;14.40;;;;;;;6.02;78.57;99765.52;229764;1192;141206;-67
2021/10/13 06:04:35;;;;;;;17.80;12.40;;;;;;;6.02;78.33;99774.85;229339;1192;138955;-67
2021/10/13 06:09:40;;;;;;;19.10;14.30;;;;;;;6.05;78.24;99785.06;230004;1191;141366;-67
2021/10/13 06:14:46;;;;;;;17.90;13.20;;;;;;;6.08;78.47;99796.70;229758;1192;141551;-66
2021/10/13 06:19:52;;;;;;;15.50;11.80;;;;;;;6.13;78.88;99796.69;229444;1192;139385;-66
2021/10/13 06:24:57;;;;;;;14.80;11.10;;;;;;;6.22;78.77;99801.66;229682;1192;139015;-68
2021/10/13 06:30:02;;;;;;;14.50;12.20;;;;;;;6.30;78.35;99811.59;229393;1192;139842;-66
2021/10/13 06:35:07;;;;;;;13.60;11.10;;;;;;;6.36;78.24;99820.39;229278;1192;139677;-67
2021/10/13 06:40:13;;;;;;;19.20;12.60;;;;;;;6.43;78.71;99827.90;229475;1192;139641;-67
2021/10/13 06:45:20;;;;;;;17.20;10.50;;;;;;;6.55;78.52;99840.33;229646;1192;140182;-67
2021/10/13 06:50:26;;;;;;;18.00;11.20;;;;;;;6.67;78.48;99847.65;229050;1192;139846;-66
2021/10/13 06:55:30;;;;;;;14.30;10.60;;;;;;;6.66;78.14;99848.83;230094;1192;140188;-67
2021/10/13 07:00:36;;;;;;;15.50;9.40;;;;;;;6.61;78.25;99847.58;229634;1192;139171;-67
2021/10/13 07:05:44;;;;;;;12.50;9.80;;;;;;;6.60;77.96;99845.45;230429;1192;139185;-68
2021/10/13 07:10:48;;;;;;;13.50;9.10;;;;;;;6.69;77.90;99850.26;229053;1193;140583;-67
2021/10/13 07:15:53;;;;;;;14.00;10.60;;;;;;;6.79;77.88;99858.65;230369;1192;139914;-66
2021/10/13 07:20:59;;;;;;;12.80;10.20;;;;;;;6.83;77.76;99871.23;230657;1192;139466;-68
2021/10/13 07:26:03;;;;;;;13.80;9.80;;;;;;;6.89;77.91;99880.26;229558;1192;139024;-67
2021/10/13 07:31:07;;;;;;;14.70;10.90;;;;;;;6.99;77.72;99881.09;230225;1192;139881;-67
2021/10/13 07:36:12;;;;;;;12.10;9.30;;;;;;;7.08;77.36;99888.92;230862;1192;139431;-70
2021/10/13 07:41:18;;;;;;;11.10;8.60;;;;;;;7.16;77.44;99890.16;231031;1192;139068;-68
2021/10/13 07:46:25;;;;;;;9.50;8.30;;;;;;;7.34;77.34;99896.43;230543;1192;139392;-68
2021/10/13 07:51:31;;;;;;;11.80;8.50;;;;;;;7.58;77.05;99893.88;230312;1192;139626;-67
2021/10/13 07:56:36;;;;;;;6.10;4.70;;;;;;;7.92;77.29;99896.72;230791;1192;139165;-68
2021/10/13 08:01:40;;;;;;;12.90;8.30;;;;;;;7.98;76.89;99896.55;230386;1192;139318;-68
2021/10/13 08:06:45;;;;;;;9.60;8.40;;;;;;;8.04;76.46;99897.30;229895;1192;139337;-68
2021/10/13 08:11:50;;;;;;;10.50;8.20;;;;;;;8.14;76.40;99901.33;229643;1192;139361;-69
2021/10/13 08:16:57;;;;;;;10.90;7.50;;;;;;;8.06;76.19;99907.37;229893;1192;140029;-67
2021/10/13 08:22:03;;;;;;;8.10;7.30;;;;;;;8.22;76.40;99916.42;229204;1186;139865;-67
2021/10/13 08:27:09;;;;;;;7.70;6.90;;;;;;;8.45;75.93;99914.83;229503;1192;140478;-67
2021/10/13 08:32:14;;;;;;;9.40;7.40;;;;;;;8.59;75.81;99920.38;229471;1192;139998;-68
2021/10/13 08:37:18;;;;;;;8.80;7.30;;;;;;;9.21;75.73;99926.09;229509;1193;139879;-68
2021/10/13 08:42:24;;;;;;;8.40;6.80;;;;;;;9.39;75.22;99929.38;229408;1192;141918;-68
2021/10/13 08:47:28;;;;;;;7.20;6.10;;;;;;;9.44;74.75;99936.00;229580;1192;140224;-67
2021/10/13 08:52:32;;;;;;;9.60;8.60;;;;;;;9.36;74.25;99940.75;229804;1192;140361;-68
2021/10/13 08:57:37;;;;;;;12.50;8.40;;;;;;;9.27;74.29;99951.48;229583;1192;140723;-68
2021/10/13 09:02:45;;;;;;;9.40;7.70;;;;;;;9.14;74.15;99953.45;230287;1192;140715;-67
2021/10/13 09:07:49;;;;;;;;;;;;;;;9.00;74.08;99954.16;229680;1192;140812;-68
2021/10/13 09:12:56;;;;;;;11.40;8.10;;;;;;;8.90;74.24;99960.10;231049;1192;126405;-68
2021/10/13 09:18:03;;;;;;;12.30;8.20;;;;;;;8.83;74.20;99962.88;230296;1192;139136;-68
2021/10/13 09:23:15;;;;;;;9.40;7.30;;;;;;;8.94;74.34;99960.12;229601;1192;140365;-67
2021/10/13 09:28:20;;;;;;;9.40;8.10;;;;;;;9.08;74.18;99952.49;230265;1192;140183;-67
2021/10/13 09:33:24;;;;;;;9.10;8.00;;;;;;;9.25;74.48;99955.22;230401;1192;139956;-69
2021/10/13 09:38:31;;;;;;;11.10;7.50;;;;;;;9.25;74.01;99958.41;230372;1192;139207;-68
2021/10/13 09:43:37;;;;;;;8.60;6.90;;;;;;;9.42;74.07;99959.70;231324;1192;139733;-69
2021/10/13 09:48:44;;;;;;;9.40;8.10;;;;;;;9.66;74.15;99963.08;230012;1192;139216;-69
2021/10/13 09:53:52;;;;;;;11.70;5.60;;;;;;;10.03;74.15;99962.86;231019;1192;139919;-70
2021/10/13 09:59:13;;;;;;;8.70;7.40;;;;;;;10.18;73.06;99965.15;230550;1192;141371;-69
2021/10/13 10:04:20;;;;;;;10.10;7.40;;;;;;;10.41;72.91;99969.02;230734;1192;139937;-68
2021/10/13 10:09:29;;;;;;;12.60;8.40;;;;;;;10.49;72.77;99967.44;229954;1192;141280;-69
2021/10/13 10:14:37;;;;;;;7.20;6.10;;;;;;;10.59;72.88;99976.92;229592;1192;140961;-67
2021/10/13 10:19:48;;;;;;;8.70;6.70;;;;;;;10.69;72.52;99981.13;229819;1192;140485;-68
2021/10/13 10:24:55;;;;;;;7.30;6.30;;;;;;;10.70;72.05;99986.79;229761;1192;141437;-68
2021/10/13 10:30:09;;;;;;;9.80;6.60;;;;;;;10.67;71.67;99990.30;229044;1192;140305;-67
2021/10/13 10:35:16;;;;;;;11.10;7.30;;;;;;;10.69;71.52;99987.48;229435;1192;141542;-68
2021/10/13 10:40:31;;;;;;;9.30;7.70;;;;;;;10.69;71.64;99990.08;230011;1191;139808;-68
2021/10/13 10:45:39;;;;;;;11.10;7.30;;;;;;;10.71;71.11;99995.34;229975;1192;139723;-68
2021/10/13 10:50:58;;;;;;;10.00;8.50;;;;;;;10.84;71.11;99997.97;229477;1192;158621;-68
2021/10/13 10:56:21;;;;;;;8.00;6.80;;;;;;;11.15;70.96;99992.02;230022;1191;140011;-68
2021/10/13 11:01:26;;;;;;;7.60;6.50;;;;;;;11.27;70.55;99995.08;229422;1192;139875;-68
2021/10/13 11:06:35;;;;;;;10.60;6.90;;;;;;;11.26;70.18;99993.45;230603;1184;141156;-68
2021/10/13 11:11:42;;;;;;;10.90;8.40;;;;;;;11.28;70.03;99999.59;229383;1192;139614;-68
2021/10/13 11:16:59;;;;;;;9.00;7.70;;;;;;;11.20;69.68;100005.48;230648;1192;139878;-68
2021/10/13 11:22:09;;;;;;;8.20;7.40;;;;;;;11.21;69.77;100003.47;230750;1192;140685;-68
2021/10/13 11:27:24;;;;;;;8.10;6.50;;;;;;;11.23;69.51;100004.17;230564;1191;139722;-68
2021/10/13 11:32:42;;;;;;;12.70;8.80;;;;;;;11.20;69.26;100001.52;230275;1191;140131;-68
2021/10/13 11:37:53;;;;;;;10.00;7.80;;;;;;;11.09;69.55;100000.95;230889;1192;139767;-68
2021/10/13 11:43:06;;;;;;;8.00;6.70;;;;;;;10.88;69.40;100001.33;231166;1191;140236;-68
2021/10/13 11:48:11;;;;;;;10.90;7.60;;;;;;;10.69;69.73;100000.42;231247;1191;140393;-69
2021/10/13 11:53:15;;;;;;;9.60;7.60;;;;;;;10.57;70.13;100002.45;230890;1192;139722;-68
2021/10/13 11:58:29;;;;;;;10.10;8.30;;;;;;;10.81;70.11;100001.05;230295;1192;140022;-68
2021/10/13 12:03:34;;;;;;;11.30;8.20;;;;;;;11.02;70.28;99992.09;230272;1192;140225;-67
2021/10/13 12:08:42;;;;;;;10.20;9.10;;;;;;;10.92;70.12;99994.16;229880;1191;139457;-68
2021/10/13 12:13:53;;;;;;;7.80;6.10;;;;;;;10.79;70.03;99998.10;230233;1192;140435;-68
2021/10/13 12:19:20;;;;;;;9.80;7.00;;;;;;;10.64;69.95;100000.93;229957;1191;139409;-68
2021/10/13 12:24:33;;;;;;;7.50;5.90;;;;;;;10.67;70.08;99999.89;230041;1192;139332;-68
2021/10/13 12:29:46;;;;;;;7.70;4.50;;;;;;;11.00;70.56;99995.08;230057;1192;140821;-68
2021/10/13 12:35:12;;;;;;;5.40;4.90;;;;;;;11.16;70.13;99994.55;230073;1191;139183;-68
2021/10/13 12:40:26;;;;;;;6.00;3.60;;;;;;;11.11;69.45;99995.63;229504;1192;139286;-68
2021/10/13 12:45:32;;;;;;;4.00;3.60;;;;;;;11.08;69.22;99995.76;230104;1192;139124;-68
2021/10/13 12:51:16;;;;;;;4.60;3.60;;;;;;;11.03;68.71;100000.48;229404;1192;141507;-69
2021/10/13 12:56:24;;;;;;;5.80;4.30;;;;;;;11.08;68.83;100002.11;229225;1192;141476;-68
2021/10/13 13:01:28;;;;;;;5.90;5.30;;;;;;;11.36;68.92;100002.20;229681;1192;140358;-68
2021/10/13 13:06:34;;;;;;;4.10;2.90;;;;;;;11.60;68.61;100003.38;228861;1192;140634;-68
2021/10/13 13:11:38;;;;;;;4.30;3.00;;;;;;;11.80;67.97;100002.75;230251;1192;140609;-69
2021/10/13 13:16:44;;;;;;;4.50;2.70;;;;;;;11.79;67.59;100010.70;229746;1187;140710;-68
2021/10/13 13:21:50;;;;;;;4.90;3.30;;;;;;;11.69;67.29;100013.71;230283;1192;140359;-68
2021/10/13 13:26:54;;;;;;;6.10;3.90;;;;;;;11.62;67.12;100014.70;230061;1192;139011;-67
2021/10/13 13:32:01;;;;;;;3.80;3.40;;;;;;;11.73;67.21;100016.33;230372;1192;139138;-68
2021/10/13 13:37:22;;;;;;;3.30;2.80;;;;;;;11.91;66.86;100019.92;229071;1192;139329;-68
2021/10/13 13:42:28;;;;;;;4.80;4.20;;;;;;;11.92;67.02;100021.96;231417;1191;139486;-68
2021/10/13 13:47:33;;;;;;;6.00;4.20;;;;;;;12.04;66.82;100025.84;231154;1192;141297;-67
2021/10/13 13:52:37;;;;;;;10.60;5.30;;;;;;;12.06;66.14;100021.17;230861;1192;141120;-68
2021/10/13 13:57:45;;;;;;;6.30;5.00;;;;;;;11.90;66.12;100025.73;231194;1192;140091;-68
2021/10/13 14:02:49;;;;;;;5.60;4.50;;;;;;;11.75;66.35;100025.30;230710;1191;142050;-66
2021/10/13 14:07:56;;;;;;;5.30;4.60;;;;;;;11.70;66.46;100027.73;231158;1192;141457;-66
2021/10/13 14:13:26;;;;;;;5.30;4.60;;;;;;;11.60;66.58;100033.44;230351;1192;140984;-68
2021/10/13 14:18:30;;;;;;;5.50;4.30;;;;;;;11.46;66.65;100033.77;230660;1192;140300;-68
2021/10/13 14:23:34;;;;;;;7.60;5.60;;;;;;;11.38;66.72;100034.98;229268;1192;140672;-67
2021/10/13 14:28:38;;;;;;;5.80;4.00;;;;;;;11.36;66.79;100037.07;230303;1191;140523;-68
2021/10/13 14:33:42;;;;;;;5.80;4.70;;;;;;;11.33;67.16;100036.88;230018;1192;141095;-69
2021/10/13 14:38:47;;;;;;;6.00;4.30;;;;;;;11.39;67.13;100046.16;228280;1192;139914;-67
2021/10/13 14:43:51;;;;;;;2.70;2.50;;;;;;;11.37;66.80;100049.31;229916;1192;139091;-68
2021/10/13 14:48:56;;;;;;;3.40;2.80;;;;;;;11.34;66.36;100058.04;230188;1191;140612;-68
2021/10/13 14:54:03;;;;;;;9.00;3.40;;;;;;;11.37;66.16;100059.67;229561;1191;141130;-67
2021/10/13 14:59:07;;;;;;;4.20;3.00;;;;;;;11.30;65.93;100064.64;230353;1192;139493;-67
2021/10/13 15:04:13;;;;;;;5.00;2.50;;;;;;;11.20;65.73;100072.45;229505;1191;140222;-67
2021/10/13 15:09:19;;;;;;;2.80;2.60;;;;;;;11.12;65.88;100077.02;229157;1192;139174;-66
2021/10/13 15:14:23;;;;;;;3.20;2.50;;;;;;;10.92;65.59;100081.38;230166;1192;139466;-69
2021/10/13 15:19:28;;;;;;;4.10;3.10;;;;;;;10.69;65.88;100088.08;230495;1191;139266;-68
2021/10/13 15:24:36;;;;;;;3.50;2.90;;;;;;;10.50;65.88;100093.17;229751;1192;139693;-68
2021/10/13 15:29:43;;;;;;;2.40;2.00;;;;;;;10.33;66.18;100099.43;229965;1192;139874;-68
2021/10/13 15:34:52;;;;;;;5.00;3.20;;;;;;;10.17;66.39;100107.91;230489;1191;143093;-68
2021/10/13 15:39:59;;;;;;;6.20;3.80;;;;;;;10.06;66.33;100114.34;230256;1192;140511;-68
2021/10/13 15:45:07;;;;;;;4.40;3.70;;;;;;;9.92;66.52;100115.41;230495;1191;139763;-68
2021/10/13 15:50:12;;;;;;;5.50;3.40;;;;;;;9.79;66.75;100122.33;229566;1191;142280;-68
2021/10/13 15:55:18;;;;;;;6.90;4.10;;;;;;;9.62;66.91;100131.54;230435;1192;139925;-68
2021/10/13 16:00:23;;;;;;;7.00;3.90;;;;;;;9.42;67.09;100138.80;231160;1192;140650;-68
2021/10/13 16:05:29;;;;;;;6.00;3.70;;;;;;;9.17;67.15;100139.15;231168;1191;139770;-68
2021/10/13 16:10:34;;;;;;;5.20;3.40;;;;;;;9.00;67.30;100138.98;231139;1192;139323;-68
2021/10/13 16:15:41;;;;;;;4.70;3.60;;;;;;;8.86;67.59;100143.03;230021;1192;140649;-67
2021/10/13 16:20:49;;;;;;;5.90;3.40;;;;;;;8.70;67.95;100151.83;230122;1191;139776;-67
2021/10/13 16:25:54;;;;;;;5.00;3.60;;;;;;;8.49;68.06;100153.98;230879;1191;139265;-68
2021/10/13 16:31:02;;;;;;;4.70;3.20;;;;;;;8.29;68.13;100163.64;230364;1192;139507;-67
2021/10/13 16:36:07;;;;;;;6.00;4.00;;;;;;;8.15;68.46;100170.70;229858;1192;140356;-68
2021/10/13 16:41:15;;;;;;;3.50;3.10;;;;;;;8.01;68.89;100170.67;229467;1192;139999;-68
2021/10/13 16:46:19;;;;;;;5.90;3.90;;;;;;;7.84;68.91;100182.55;230100;1191;139784;-68
2021/10/13 16:51:25;;;;;;;6.40;4.20;;;;;;;7.63;69.19;100187.17;230366;1192;139267;-67
2021/10/13 16:56:31;;;;;;;4.80;3.40;;;;;;;7.44;69.24;100191.41;229603;1192;140638;-67
2021/10/13 17:01:36;;;;;;;4.60;3.60;;;;;;;7.29;69.30;100191.84;229847;1191;140459;-67
2021/10/13 17:06:42;;;;;;;5.40;4.00;;;;;;;7.16;69.92;100197.41;229126;1192;139781;-67
2021/10/13 17:11:47;;;;;;;6.50;5.10;;;;;;;7.03;70.08;100198.52;230169;1191;138874;-67
2021/10/13 17:16:51;;;;;;;7.60;5.40;;;;;;;6.89;70.17;100200.29;229936;1192;141195;-67
2021/10/13 17:21:54;;;;;;;13.50;6.30;;;;;;;6.78;70.19;100204.23;229381;1191;139386;-67
2021/10/13 17:26:59;;;;;;;7.10;6.20;;;;;;;6.67;70.70;100203.56;229401;1176;140532;-68
2021/10/13 17:32:05;;;;;;;8.50;6.60;;;;;;;6.55;70.99;100206.80;230036;1192;140544;-67
2021/10/13 17:37:10;;;;;;;6.70;6.10;;;;;;;6.46;71.07;100207.23;230151;1192;140528;-66
2021/10/13 17:42:14;;;;;;;10.70;6.80;;;;;;;6.39;71.48;100211.49;229560;1192;140334;-66
2021/10/13 17:47:20;;;;;;;15.30;8.20;;;;;;;6.31;71.38;100223.30;230025;1192;140489;-66
2021/10/13 17:52:25;;;;;;;26.60;15.40;;;;;;;6.29;71.70;100227.24;231045;1191;140692;-66
2021/10/13 17:57:30;;;;;;;20.10;14.10;;;;;;;6.26;71.80;100235.77;231155;1191;140318;-70
2021/10/13 18:02:35;;;;;;;21.10;13.80;;;;;;;6.21;71.87;100246.33;230962;1191;139827;-67
2021/10/13 18:07:41;;;;;;;23.40;14.80;;;;;;;6.11;71.80;100247.93;228884;1192;140187;-66
2021/10/13 18:12:47;;;;;;;16.50;14.20;;;;;;;5.97;71.60;100250.11;231300;1192;140567;-66
2021/10/13 18:17:52;;;;;;;18.10;11.40;;;;;;;5.87;71.95;100257.01;230920;1191;140182;-66
2021/10/13 18:22:58;;;;;;;15.80;11.80;;;;;;;5.73;71.66;100266.34;229140;1192;140553;-65
2021/10/13 18:28:03;;;;;;;22.00;15.80;;;;;;;5.59;72.11;100272.27;229393;1192;142969;-65
2021/10/13 18:33:12;;;;;;;37.30;19.60;;;;;;;5.48;72.18;100280.18;229806;1191;141043;-66
2021/10/13 18:38:20;;;;;;;36.40;22.00;;;;;;;5.41;72.30;100283.85;230134;1191;142893;-65
2021/10/13 18:43:27;;;;;;;33.70;21.60;;;;;;;5.29;72.41;100294.94;230359;1192;141513;-66
2021/10/13 18:48:32;;;;;;;29.10;18.60;;;;;;;5.20;72.57;100300.52;229629;1192;141321;-65
2021/10/13 18:53:39;;;;;;;27.80;17.70;;;;;;;5.05;72.75;100303.58;229207;1192;230603;-64
2021/10/13 18:58:45;;;;;;;26.90;15.20;;;;;;;4.89;72.44;100307.57;229584;1192;221759;-65
2021/10/13 19:03:50;;;;;;;18.90;13.20;;;;;;;4.83;72.67;100307.32;229364;1192;141389;-65
2021/10/13 19:08:56;;;;;;;23.00;15.30;;;;;;;4.75;72.85;100317.98;229690;1192;143006;-65
2021/10/13 19:14:08;;;;;;;22.40;13.50;;;;;;;4.63;73.00;100320.98;229443;1192;152117;-64
2021/10/13 19:19:13;;;;;;;19.10;11.70;;;;;;;4.58;73.44;100323.84;230129;1191;140309;-65
2021/10/13 19:24:19;;;;;;;20.50;13.50;;;;;;;4.55;73.13;100327.80;229126;1191;140102;-65
2021/10/13 19:29:24;;;;;;;15.70;11.90;;;;;;;4.40;73.23;100328.11;229807;1191;140171;-66
2021/10/13 19:34:29;;;;;;;19.70;13.30;;;;;;;4.20;73.06;100333.59;230884;1192;140341;-65
2021/10/13 19:39:34;;;;;;;16.30;10.10;;;;;;;4.06;73.48;100337.92;229683;1192;139098;-65
2021/10/13 19:44:40;;;;;;;15.90;9.10;;;;;;;3.93;73.23;100344.54;229334;1192;142487;-66
2021/10/13 19:49:45;;;;;;;14.10;10.40;;;;;;;3.90;73.39;100350.70;231038;1191;140227;-68
2021/10/13 19:54:51;;;;;;;17.50;10.60;;;;;;;3.89;73.83;100353.83;229631;1193;140459;-66
2021/10/13 19:59:56;;;;;;;16.00;11.90;;;;;;;3.91;74.06;100363.73;230369;1191;139472;-66
2021/10/13 20:05:01;;;;;;;14.10;10.10;;;;;;;3.93;74.49;100367.75;231247;1191;139450;-68
2021/10/13 20:10:07;;;;;;;19.40;12.00;;;;;;;3.98;74.58;100372.77;230780;1192;140017;-66
2021/10/13 20:15:12;;;;;;;18.20;11.70;;;;;;;3.94;74.19;100367.85;230569;1192;140367;-66
2021/10/13 20:20:17;;;;;;;16.00;11.40;;;;;;;3.89;74.55;100368.70;229998;1192;139480;-66
2021/10/13 20:25:22;;;;;;;19.60;12.40;;;;;;;3.79;74.60;100371.59;230805;1192;140509;-66
2021/10/13 20:30:27;;;;;;;20.10;12.90;;;;;;;3.72;74.65;100379.42;230468;1191;140231;-66
2021/10/13 20:35:34;;;;;;;14.90;11.40;;;;;;;3.74;74.44;100386.91;229680;1192;140731;-65
2021/10/13 20:40:39;;;;;;;25.00;13.80;;;;;;;3.71;74.73;100392.20;229933;1192;151301;-66
2021/10/13 20:45:44;;;;;;;18.70;13.40;;;;;;;3.70;75.21;100390.89;229337;1192;138893;-66
2021/10/13 20:50:50;;;;;;;19.60;12.20;;;;;;;3.73;75.30;100393.34;229673;1191;139081;-65
2021/10/13 20:55:55;;;;;;;21.60;14.00;;;;;;;3.78;75.40;100393.68;229222;1191;139420;-65
2021/10/13 21:00:59;;;;;;;27.40;15.10;;;;;;;3.80;75.50;100392.09;229502;1192;140302;-65
2021/10/13 21:06:03;;;;;;;16.40;11.90;;;;;;;3.77;75.61;100390.66;229281;1191;139952;-64
2021/10/13 21:11:07;;;;;;;19.50;12.90;;;;;;;3.72;75.72;100388.34;230037;1192;140259;-66
2021/10/13 21:16:12;;;;;;;18.50;13.90;;;;;;;3.69;75.52;100391.17;229856;1192;139965;-65
2021/10/13 21:21:17;;;;;;;26.60;17.10;;;;;;;3.60;75.37;100391.00;230117;1193;234629;-65
2021/10/13 21:26:21;;;;;;;31.00;17.10;;;;;;;3.48;75.46;100387.95;229432;1192;143039;-64
2021/10/13 21:31:29;;;;;;;33.40;16.70;;;;;;;3.34;75.33;100390.11;229911;1192;141739;-66
2021/10/13 21:36:33;;;;;;;27.50;14.40;;;;;;;3.23;75.42;100387.83;229951;1192;139841;-66
2021/10/13 21:41:38;;;;;;;31.50;19.40;;;;;;;3.20;75.30;100388.72;230053;1192;140628;-67
2021/10/13 21:46:43;;;;;;;27.60;18.80;;;;;;;3.17;75.48;100389.39;230350;1192;140294;-66
2021/10/13 21:51:49;;;;;;;29.00;17.80;;;;;;;3.13;75.57;100389.30;230543;1192;139413;-66
2021/10/13 21:56:53;;;;;;;25.70;13.80;;;;;;;3.05;75.45;100385.79;230576;1192;138934;-66
2021/10/13 22:01:59;;;;;;;21.90;13.40;;;;;;;2.91;74.82;100391.72;231259;1192;139767;-66
2021/10/13 22:07:04;;;;;;;19.30;12.90;;;;;;;2.74;74.94;100394.52;231165;1192;139982;-66
2021/10/13 22:12:10;;;;;;;18.20;12.40;;;;;;;2.59;74.92;100390.74;230597;1192;140016;-66
2021/10/13 22:17:16;;;;;;;;;;;;;;;2.46;75.05;100391.64;230990;1192;140434;-67
2021/10/13 22:22:22;;;;;;;22.20;11.70;;;;;;;2.34;75.41;100398.03;231213;1192;125701;-67
2021/10/13 22:27:28;;;;;;;18.30;10.10;;;;;;;2.30;75.64;100395.83;230306;1192;139778;-65
2021/10/13 22:32:33;;;;;;;17.10;10.90;;;;;;;2.30;75.31;100393.40;230282;1192;140252;-65
2021/10/13 22:37:38;;;;;;;18.50;9.40;;;;;;;2.24;75.49;100393.86;230430;1191;139661;-65
2021/10/13 22:42:45;;;;;;;15.20;10.10;;;;;;;2.12;75.36;100396.89;230303;1191;140812;-65
2021/10/13 22:47:49;;;;;;;19.00;10.40;;;;;;;2.01;75.63;100397.20;229472;1192;140676;-65
2021/10/13 22:53:00;;;;;;;12.90;9.40;;;;;;;1.94;75.74;100393.74;229887;1192;139364;-64
2021/10/13 22:58:04;;;;;;;13.40;9.50;;;;;;;1.93;75.52;100392.63;229896;1192;140031;-65
2021/10/13 23:03:07;;;;;;;15.70;9.80;;;;;;;1.89;75.98;100397.19;229569;1192;139943;-65
2021/10/13 23:08:12;;;;;;;14.30;8.60;;;;;;;1.85;76.09;100398.16;229362;1177;141033;-64
2021/10/13 23:13:16;;;;;;;13.40;8.90;;;;;;;1.75;75.71;100399.09;229431;1192;153189;-64